Time;durP1;ratioP1;P1;durP2;ratioP2;P2;SDS_P1;SDS_P2;PMS_P1;PMS_P2;Temp;Humidity;BMP_temperature;BMP_pressure;BME280_temperature;BME280_humidity;BME280_pressure;Samples;Min_cycle;Max_cycle;Signal;HPM_P1;HPM_P2
2022/03/26 00:00:25;;;;;;;18.88;10.00;;;7.00;98.70;;;;;;5070198;28;20206;-69
2022/03/26 00:02:52;;;;;;;18.55;10.85;;;6.90;98.80;;;;;;5070872;28;20172;-69
2022/03/26 00:05:19;;;;;;;16.23;9.18;;;6.80;99.00;;;;;;5070878;28;20157;-70
2022/03/26 00:07:45;;;;;;;20.63;9.77;;;6.70;99.00;;;;;;5070894;28;20161;-69
2022/03/26 00:10:12;;;;;;;17.90;9.07;;;6.60;99.10;;;;;;5070780;28;20196;-70
2022/03/26 00:12:39;;;;;;;24.80;10.43;;;6.60;99.30;;;;;;5070773;28;20172;-70
2022/03/26 00:15:07;;;;;;;19.63;10.45;;;6.60;99.10;;;;;;5070703;28;20184;-70
2022/03/26 00:17:35;;;;;;;19.58;10.18;;;6.90;98.70;;;;;;5070603;28;20182;-70
2022/03/26 00:20:02;;;;;;;17.08;9.73;;;6.90;98.70;;;;;;5070440;28;20184;-69
2022/03/26 00:22:28;;;;;;;19.52;10.18;;;6.90;98.60;;;;;;5070540;28;20157;-70
2022/03/26 00:24:54;;;;;;;21.95;10.90;;;6.90;98.70;;;;;;5070520;28;20167;-70
2022/03/26 00:27:20;;;;;;;19.63;10.30;;;6.90;98.80;;;;;;5070543;28;20215;-70
2022/03/26 00:29:46;;;;;;;16.50;9.38;;;6.90;98.70;;;;;;5070341;28;20248;-70
2022/03/26 00:32:12;;;;;;;16.67;10.10;;;7.00;98.70;;;;;;5070454;28;20173;-70
2022/03/26 00:34:38;;;;;;;19.58;9.73;;;6.90;99.00;;;;;;5070256;28;20157;-71
2022/03/26 00:37:05;;;;;;;20.38;10.80;;;6.90;99.00;;;;;;5070252;28;20168;-71
2022/03/26 00:39:31;;;;;;;21.50;9.77;;;7.00;98.70;;;;;;5070271;28;20202;-71
2022/03/26 00:41:57;;;;;;;15.18;9.20;;;7.10;98.50;;;;;;5070035;28;20160;-71
2022/03/26 00:44:23;;;;;;;20.05;9.48;;;7.10;98.50;;;;;;5070116;28;20148;-70
2022/03/26 00:46:50;;;;;;;16.83;9.15;;;7.00;98.40;;;;;;5070132;28;20228;-70
2022/03/26 00:49:17;;;;;;;18.17;9.73;;;7.00;98.30;;;;;;5069807;28;20157;-70
2022/03/26 00:51:43;;;;;;;17.63;10.75;;;7.00;98.50;;;;;;5069977;28;20164;-70
2022/03/26 00:54:10;;;;;;;18.88;8.98;;;7.00;98.50;;;;;;5069944;28;20157;-70
2022/03/26 00:56:38;;;;;;;17.52;9.65;;;7.00;98.50;;;;;;5052671;28;20192;-70
2022/03/26 00:59:05;;;;;;;19.42;9.38;;;6.90;98.60;;;;;;5049682;28;20243;-70
2022/03/26 01:01:32;;;;;;;16.50;9.73;;;6.80;98.80;;;;;;5047991;28;20326;-70
2022/03/26 01:04:00;;;;;;;17.55;9.98;;;6.60;99.00;;;;;;5069714;28;20161;-70
2022/03/26 01:06:26;;;;;;;21.25;10.50;;;6.60;99.00;;;;;;5069840;28;20191;-70
2022/03/26 01:08:53;;;;;;;16.92;9.63;;;6.70;98.80;;;;;;5069012;28;20165;-70
2022/03/26 01:11:20;;;;;;;18.23;9.85;;;6.70;98.80;;;;;;5069626;28;20227;-70
2022/03/26 01:13:48;;;;;;;18.92;10.32;;;6.70;98.80;;;;;;5069685;28;20647;-70
2022/03/26 01:16:14;;;;;;;19.90;8.90;;;6.60;99.00;;;;;;5051446;28;20310;-70
2022/03/26 01:18:41;;;;;;;20.55;10.13;;;6.60;99.20;;;;;;5069665;28;20168;-70
2022/03/26 01:21:07;;;;;;;18.88;10.32;;;6.70;98.90;;;;;;5069379;28;20192;-70
2022/03/26 01:23:34;;;;;;;18.13;10.50;;;6.80;98.70;;;;;;5069302;28;20160;-70
2022/03/26 01:26:00;;;;;;;17.23;9.57;;;6.90;98.70;;;;;;5069526;28;20577;-70
2022/03/26 01:28:26;;;;;;;20.38;9.07;;;6.80;98.80;;;;;;5069335;28;20152;-71
2022/03/26 01:30:53;;;;;;;17.33;9.57;;;6.70;99.00;;;;;;5069278;28;20238;-71
2022/03/26 01:33:19;;;;;;;17.90;9.75;;;6.50;99.30;;;;;;5069244;28;20161;-70
2022/03/26 01:35:45;;;;;;;21.15;9.93;;;6.30;99.80;;;;;;5069149;28;20192;-70
2022/03/26 01:38:11;;;;;;;15.68;8.90;;;6.20;99.90;;;;;;5069123;28;20163;-70
2022/03/26 01:40:37;;;;;;;21.65;9.95;;;6.10;99.90;;;;;;5069078;28;20180;-70
2022/03/26 01:43:04;;;;;;;19.55;9.73;;;5.90;99.90;;;;;;5069267;28;20157;-70
2022/03/26 01:45:31;;;;;;;19.98;10.70;;;5.70;99.90;;;;;;5069043;28;20153;-70
2022/03/26 01:47:58;;;;;;;18.17;9.60;;;5.40;99.90;;;;;;5069088;28;20187;-70
2022/03/26 01:50:26;;;;;;;18.77;9.55;;;5.30;99.90;;;;;;5069038;28;20199;-70
2022/03/26 01:52:51;;;;;;;19.90;9.98;;;5.10;99.90;;;;;;5068992;28;20220;-70
2022/03/26 01:55:18;;;;;;;20.35;10.02;;;5.20;99.90;;;;;;5048486;28;20207;-70
2022/03/26 01:57:45;;;;;;;17.42;9.88;;;5.10;99.90;;;;;;5068712;28;20223;-70
2022/03/26 02:00:12;;;;;;;18.00;9.07;;;4.90;99.90;;;;;;5068878;28;20219;-70
2022/03/26 02:02:43;;;;;;;16.13;8.95;;;4.80;99.90;;;;;;5069061;28;20157;-70
2022/03/26 02:05:14;;;;;;;18.88;9.02;;;4.70;99.90;;;;;;5069005;28;20491;-70
2022/03/26 02:07:41;;;;;;;18.98;9.35;;;4.60;99.90;;;;;;5068922;28;20153;-70
2022/03/26 02:10:11;;;;;;;19.00;10.18;;;4.70;99.90;;;;;;5068811;28;20194;-70
2022/03/26 02:12:38;;;;;;;21.58;10.63;;;4.70;99.90;;;;;;5050915;28;20173;-70
2022/03/26 02:15:06;;;;;;;18.27;9.68;;;4.90;99.90;;;;;;5068715;28;20189;-70
2022/03/26 02:17:33;;;;;;;16.63;8.32;;;5.00;99.90;;;;;;5068843;28;20235;-70
2022/03/26 02:20:01;;;;;;;20.83;9.45;;;5.10;99.90;;;;;;5068691;28;20189;-71
2022/03/26 02:22:28;;;;;;;22.63;9.60;;;5.20;99.90;;;;;;5071868;28;20153;-70
2022/03/26 02:24:55;;;;;;;17.05;7.65;;;5.10;99.90;;;;;;5072790;28;20303;-71
2022/03/26 02:27:23;;;;;;;20.20;9.63;;;5.00;99.90;;;;;;5072648;28;20190;-71
2022/03/26 02:29:51;;;;;;;15.98;8.77;;;4.80;99.90;;;;;;5072472;28;20161;-71
2022/03/26 02:32:27;;;;;;;13.32;8.32;;;4.70;99.90;;;;;;5072481;28;20175;-71
2022/03/26 02:34:53;;;;;;;14.18;8.50;;;4.50;99.90;;;;;;5072172;28;20207;-70
2022/03/26 02:37:20;;;;;;;19.50;8.73;;;4.40;99.90;;;;;;5071532;28;20191;-71
2022/03/26 02:39:46;;;;;;;17.80;8.23;;;4.20;99.90;;;;;;5072627;28;20190;-71
2022/03/26 02:42:13;;;;;;;15.40;9.02;;;4.10;99.90;;;;;;5072385;28;20161;-71
2022/03/26 02:44:40;;;;;;;14.48;8.95;;;4.10;99.90;;;;;;5072311;28;20187;-71
2022/03/26 02:47:09;;;;;;;18.35;9.45;;;4.10;99.90;;;;;;5072520;28;20149;-71
2022/03/26 02:49:35;;;;;;;20.75;9.07;;;4.10;99.90;;;;;;5054403;28;20262;-71
2022/03/26 02:52:01;;;;;;;20.75;9.45;;;4.00;99.90;;;;;;5072248;28;20641;-71
2022/03/26 02:54:27;;;;;;;15.52;8.68;;;3.90;99.90;;;;;;5072310;28;20184;-69
2022/03/26 02:56:54;;;;;;;15.23;7.97;;;3.90;99.90;;;;;;5072143;28;20185;-69
2022/03/26 02:59:21;;;;;;;16.48;8.63;;;3.80;99.90;;;;;;5071917;28;20248;-71
2022/03/26 03:01:48;;;;;;;15.00;8.70;;;3.60;99.90;;;;;;5072087;28;20194;-69
2022/03/26 03:04:15;;;;;;;14.32;7.78;;;3.50;99.90;;;;;;5072107;28;20153;-69
2022/03/26 03:06:41;;;;;;;19.23;9.38;;;3.50;99.90;;;;;;5070860;28;20235;-71
2022/03/26 03:09:07;;;;;;;16.92;8.80;;;3.50;99.90;;;;;;5071872;28;20177;-69
2022/03/26 03:11:35;;;;;;;21.20;9.38;;;3.40;99.90;;;;;;5071764;28;20206;-71
2022/03/26 03:14:04;;;;;;;19.70;9.57;;;3.40;99.90;;;;;;5071956;28;20170;-71
2022/03/26 03:16:31;;;;;;;18.35;9.10;;;3.40;99.90;;;;;;5071768;28;20215;-71
2022/03/26 03:18:57;;;;;;;14.52;8.20;;;3.30;99.90;;;;;;5076276;28;20270;-73
2022/03/26 03:21:23;;;;;;;16.33;9.05;;;3.30;99.90;;;;;;5091694;28;20172;-71
2022/03/26 03:23:48;;;;;;;18.08;8.77;;;3.30;99.90;;;;;;5091777;28;20176;-73
2022/03/26 03:26:15;;;;;;;15.90;7.95;;;3.30;99.90;;;;;;5081257;28;20196;-72
2022/03/26 03:28:42;;;;;;;20.08;9.38;;;3.20;99.90;;;;;;5071478;28;20176;-73
2022/03/26 03:31:09;;;;;;;18.70;8.80;;;3.20;99.90;;;;;;5071514;28;20165;-73
2022/03/26 03:33:36;;;;;;;14.48;7.55;;;3.20;99.90;;;;;;5070910;28;20260;-70
2022/03/26 03:36:03;;;;;;;14.68;8.15;;;3.20;99.90;;;;;;5071416;28;20188;-70
2022/03/26 03:38:28;;;;;;;20.20;9.77;;;3.20;99.90;;;;;;5071447;28;20164;-70
2022/03/26 03:40:55;;;;;;;16.10;8.30;;;3.10;99.90;;;;;;5069927;28;20217;-71
2022/03/26 03:43:22;;;;;;;19.05;8.93;;;3.10;99.90;;;;;;5071169;28;20201;-71
2022/03/26 03:45:49;;;;;;;20.40;8.88;;;3.30;99.90;;;;;;5071365;28;20244;-71
2022/03/26 03:48:15;;;;;;;19.70;8.45;;;3.30;99.90;;;;;;5053270;28;20169;-71
2022/03/26 03:50:42;;;;;;;14.93;8.57;;;3.30;99.90;;;;;;5071062;28;20165;-71
2022/03/26 03:53:08;;;;;;;18.55;9.45;;;3.20;99.90;;;;;;5071085;28;20201;-69
2022/03/26 03:55:34;;;;;;;19.48;10.35;;;3.10;99.90;;;;;;5070877;28;20230;-70
2022/03/26 03:57:59;;;;;;;17.05;8.98;;;2.90;99.90;;;;;;5070707;28;20217;-71
2022/03/26 04:00:25;;;;;;;16.48;8.45;;;2.90;99.90;;;;;;5070944;28;20228;-71
2022/03/26 04:02:53;;;;;;;16.55;9.05;;;2.80;99.90;;;;;;5070698;28;20193;-71
2022/03/26 04:05:19;;;;;;;16.70;8.32;;;2.80;99.90;;;;;;5070900;28;20161;-71
2022/03/26 04:07:46;;;;;;;19.00;9.63;;;2.70;99.90;;;;;;5070772;28;20194;-71
2022/03/26 04:10:13;;;;;;;21.15;9.23;;;2.60;99.90;;;;;;5070967;28;20193;-71
2022/03/26 04:12:43;;;;;;;17.42;8.93;;;2.50;99.90;;;;;;5070636;28;20184;-69
2022/03/26 04:15:10;;;;;;;17.20;8.73;;;2.50;99.90;;;;;;5070627;28;20184;-70
2022/03/26 04:17:37;;;;;;;14.60;7.97;;;2.40;99.90;;;;;;5070626;28;20251;-71
2022/03/26 04:20:06;;;;;;;18.48;9.23;;;2.40;99.90;;;;;;5070517;28;20170;-70
2022/03/26 04:22:32;;;;;;;18.40;8.77;;;2.40;99.90;;;;;;5070517;28;20192;-71
2022/03/26 04:24:58;;;;;;;16.45;8.38;;;2.40;99.90;;;;;;5052291;28;20191;-71
2022/03/26 04:27:23;;;;;;;23.27;9.85;;;2.30;99.90;;;;;;5070483;28;20175;-71
2022/03/26 04:29:49;;;;;;;25.90;10.32;;;2.20;99.90;;;;;;5070536;28;20160;-70
2022/03/26 04:32:15;;;;;;;24.13;9.02;;;2.10;99.90;;;;;;5069633;28;20189;-71
2022/03/26 04:34:41;;;;;;;15.40;8.25;;;2.10;99.90;;;;;;5033750;28;20185;-70
2022/03/26 04:37:07;;;;;;;22.58;9.65;;;2.10;99.90;;;;;;5050188;28;20189;-70
2022/03/26 04:39:34;;;;;;;25.77;8.80;;;2.00;99.90;;;;;;5049983;28;20166;-71
2022/03/26 04:42:00;;;;;;;18.60;9.30;;;2.00;99.90;;;;;;5049854;28;20161;-70
2022/03/26 04:44:26;;;;;;;20.95;10.30;;;2.00;99.90;;;;;;5047853;28;20191;-71
2022/03/26 04:46:53;;;;;;;23.83;10.55;;;2.10;99.90;;;;;;5049926;28;20240;-69
2022/03/26 04:49:19;;;;;;;29.38;10.25;;;2.10;99.90;;;;;;5049476;28;20176;-69
2022/03/26 04:51:46;;;;;;;16.25;9.77;;;2.10;99.90;;;;;;5049892;28;20187;-69
2022/03/26 04:54:12;;;;;;;24.58;9.35;;;2.10;99.90;;;;;;5049654;28;20208;-69
2022/03/26 04:56:38;;;;;;;20.05;9.95;;;2.10;99.90;;;;;;5049612;28;20196;-69
2022/03/26 04:59:04;;;;;;;18.02;9.45;;;2.00;99.90;;;;;;5049396;28;20217;-68
2022/03/26 05:01:30;;;;;;;17.52;9.07;;;2.00;99.90;;;;;;5049833;28;20154;-70
2022/03/26 05:03:56;;;;;;;20.13;9.55;;;2.00;99.90;;;;;;5049607;28;20200;-70
2022/03/26 05:06:22;;;;;;;18.65;9.50;;;2.10;99.90;;;;;;5049469;28;20166;-69
2022/03/26 05:08:48;;;;;;;18.58;9.60;;;2.10;99.90;;;;;;5049414;28;20173;-69
2022/03/26 05:11:15;;;;;;;19.67;9.90;;;2.20;99.90;;;;;;5049482;28;20171;-69
2022/03/26 05:13:41;;;;;;;15.68;9.57;;;2.30;99.90;;;;;;5049475;28;20677;-70
2022/03/26 05:16:07;;;;;;;15.85;9.68;;;2.40;99.90;;;;;;5031652;28;20196;-71
2022/03/26 05:18:35;;;;;;;20.67;11.10;;;2.50;99.90;;;;;;5049289;28;20156;-70
2022/03/26 05:21:01;;;;;;;19.33;10.07;;;2.60;99.90;;;;;;5049226;28;20213;-70
2022/03/26 05:23:27;;;;;;;17.85;9.43;;;2.80;99.90;;;;;;5049173;28;20527;-70
2022/03/26 05:25:53;;;;;;;18.50;10.10;;;3.00;99.90;;;;;;5049189;28;20150;-70
2022/03/26 05:28:19;;;;;;;18.20;10.23;;;3.20;99.90;;;;;;5049273;28;20161;-70
2022/03/26 05:30:49;;;;;;;21.40;11.07;;;3.40;99.90;;;;;;5049091;28;20164;-70
2022/03/26 05:33:15;;;;;;;23.55;10.35;;;3.80;99.90;;;;;;5049243;28;20215;-71
2022/03/26 05:35:41;;;;;;;23.52;10.80;;;4.30;99.90;;;;;;5048869;28;20200;-70
2022/03/26 05:38:07;;;;;;;18.48;9.07;;;4.50;99.90;;;;;;5049060;28;20184;-70
2022/03/26 05:40:33;;;;;;;16.67;10.18;;;4.70;99.90;;;;;;5048893;28;20193;-69
2022/03/26 05:42:59;;;;;;;21.83;11.90;;;5.00;99.90;;;;;;5048993;28;20216;-71
2022/03/26 05:45:24;;;;;;;21.48;10.98;;;5.50;99.90;;;;;;5048819;28;20169;-70
2022/03/26 05:47:55;;;;;;;22.27;11.13;;;6.00;99.90;;;;;;5048623;28;20189;-69
2022/03/26 05:50:21;;;;;;;17.77;10.50;;;6.30;99.90;;;;;;5048828;28;20180;-71
2022/03/26 05:52:47;;;;;;;21.10;10.75;;;6.70;99.90;;;;;;5031112;28;20265;-69
2022/03/26 05:55:13;;;;;;;25.70;11.80;;;6.90;99.90;;;;;;5048716;28;20204;-69
2022/03/26 05:57:38;;;;;;;21.95;11.35;;;6.70;99.90;;;;;;5048837;28;20184;-69
2022/03/26 06:00:06;;;;;;;21.30;10.93;;;6.70;99.90;;;;;;5048479;28;20229;-69
2022/03/26 06:02:32;;;;;;;22.85;10.75;;;7.10;99.90;;;;;;5048883;28;20539;-69
2022/03/26 06:04:57;;;;;;;24.63;11.27;;;7.70;99.90;;;;;;5048617;28;20223;-69
2022/03/26 06:07:23;;;;;;;22.27;11.80;;;8.00;99.10;;;;;;5048605;28;20221;-69
2022/03/26 06:09:49;;;;;;;24.88;12.25;;;7.60;99.60;;;;;;5048631;28;20165;-69
2022/03/26 06:12:16;;;;;;;22.40;12.40;;;7.40;99.90;;;;;;5048655;28;20203;-69
2022/03/26 06:14:42;;;;;;;17.83;10.02;;;7.20;99.90;;;;;;5031210;28;20165;-69
2022/03/26 06:17:08;;;;;;;20.40;10.90;;;7.10;99.90;;;;;;5048403;28;20162;-69
2022/03/26 06:19:34;;;;;;;19.33;11.05;;;7.10;99.90;;;;;;5048200;28;20161;-69
2022/03/26 06:22:00;;;;;;;22.48;12.10;;;7.10;99.90;;;;;;5048628;28;20167;-69
2022/03/26 06:24:25;;;;;;;24.88;11.55;;;7.20;99.90;;;;;;5048546;28;20190;-70
2022/03/26 06:26:51;;;;;;;25.42;10.88;;;7.40;99.90;;;;;;5048337;28;20158;-69
2022/03/26 06:29:17;;;;;;;23.73;12.75;;;7.50;99.90;;;;;;5048417;28;20169;-69
2022/03/26 06:31:44;;;;;;;22.52;11.60;;;7.60;99.80;;;;;;5048616;28;20211;-69
2022/03/26 06:34:11;;;;;;;18.27;10.95;;;7.80;99.60;;;;;;5030643;28;20201;-69
2022/03/26 06:36:37;;;;;;;20.45;11.98;;;8.00;99.40;;;;;;5048322;28;20252;-68
2022/03/26 06:39:06;;;;;;;19.73;10.90;;;8.30;99.00;;;;;;5030587;28;20169;-68
2022/03/26 06:41:33;;;;;;;20.75;11.48;;;8.60;98.50;;;;;;5048486;28;20158;-69
2022/03/26 06:43:59;;;;;;;20.50;10.88;;;8.70;98.20;;;;;;5048093;28;20189;-69
2022/03/26 06:46:24;;;;;;;18.73;10.95;;;8.90;98.00;;;;;;5047927;28;20161;-69
2022/03/26 06:48:50;;;;;;;20.85;11.52;;;9.60;97.40;;;;;;5047443;28;20168;-68
2022/03/26 06:51:16;;;;;;;23.10;12.00;;;10.40;95.90;;;;;;5048241;28;20161;-69
2022/03/26 06:53:42;;;;;;;20.50;12.15;;;10.50;95.80;;;;;;5030260;28;20189;-69
2022/03/26 06:56:08;;;;;;;22.17;11.30;;;10.50;95.80;;;;;;5048005;28;20245;-69
2022/03/26 06:58:35;;;;;;;20.58;11.80;;;10.30;95.80;;;;;;5059190;28;20279;-69
2022/03/26 07:01:01;;;;;;;23.35;10.82;;;10.50;95.70;;;;;;5088151;28;20239;-69
2022/03/26 07:03:27;;;;;;;20.58;11.52;;;11.00;95.50;;;;;;5088096;28;20192;-69
2022/03/26 07:05:54;;;;;;;20.63;11.80;;;12.60;93.00;;;;;;5088177;28;20183;-69
2022/03/26 07:08:20;;;;;;;19.58;11.95;;;14.50;90.90;;;;;;5066853;28;20236;-69
2022/03/26 07:10:46;;;;;;;19.88;11.95;;;15.70;89.30;;;;;;5066872;28;20183;-69
2022/03/26 07:13:14;;;;;;;26.13;12.57;;;16.30;86.40;;;;;;5052274;28;20690;-70
2022/03/26 07:15:40;;;;;;;23.38;12.35;;;16.60;85.10;;;;;;5052454;28;20716;-69
2022/03/26 07:18:06;;;;;;;20.52;11.70;;;16.30;84.70;;;;;;5091381;28;20164;-69
2022/03/26 07:20:32;;;;;;;20.02;12.40;;;16.30;84.90;;;;;;5091297;28;20162;-69
2022/03/26 07:22:58;;;;;;;19.33;11.57;;;15.20;88.00;;;;;;5091311;28;20250;-69
2022/03/26 07:25:23;;;;;;;18.60;12.25;;;15.40;87.60;;;;;;5091226;28;20197;-69
2022/03/26 07:27:49;;;;;;;16.88;10.60;;;16.40;85.10;;;;;;5091265;28;20164;-68
2022/03/26 07:30:15;;;;;;;19.55;11.88;;;16.10;85.50;;;;;;5071214;28;20183;-69
2022/03/26 07:32:41;;;;;;;18.85;12.52;;;15.30;88.30;;;;;;5071404;28;20247;-69
2022/03/26 07:35:07;;;;;;;19.85;12.02;;;14.80;89.00;;;;;;5053358;28;20227;-69
2022/03/26 07:37:34;;;;;;;20.25;11.77;;;14.80;89.30;;;;;;5071268;28;20163;-70
2022/03/26 07:40:00;;;;;;;19.95;11.80;;;14.90;90.00;;;;;;5071374;28;20583;-70
2022/03/26 07:42:27;;;;;;;22.35;12.05;;;16.30;85.90;;;;;;5071293;28;20799;-70
2022/03/26 07:44:53;;;;;;;18.00;11.20;;;17.30;83.90;;;;;;5071218;28;20153;-70
2022/03/26 07:47:19;;;;;;;17.35;11.73;;;18.10;82.60;;;;;;5058898;28;20165;-70
2022/03/26 07:49:45;;;;;;;21.35;11.77;;;18.10;82.20;;;;;;5060657;28;20227;-72
2022/03/26 07:52:12;;;;;;;21.27;12.20;;;18.50;81.00;;;;;;5058989;28;20168;-70
2022/03/26 07:54:38;;;;;;;20.27;11.57;;;19.00;80.80;;;;;;5059655;28;20165;-71
2022/03/26 07:57:04;;;;;;;21.67;11.88;;;19.50;79.90;;;;;;5060611;28;20232;-70
2022/03/26 07:59:31;;;;;;;19.85;12.13;;;19.40;78.40;;;;;;5059283;28;20228;-70
2022/03/26 08:01:58;;;;;;;18.73;11.70;;;20.10;77.00;;;;;;5062717;28;20186;-70
2022/03/26 08:04:24;;;;;;;21.65;12.50;;;19.80;77.50;;;;;;5061167;28;20185;-70
2022/03/26 08:06:50;;;;;;;19.63;11.90;;;19.80;78.90;;;;;;5058406;28;20237;-70
2022/03/26 08:09:15;;;;;;;18.23;11.48;;;20.80;76.30;;;;;;5054469;28;20188;-70
2022/03/26 08:11:42;;;;;;;21.35;12.05;;;21.90;73.80;;;;;;5050574;28;20161;-70
2022/03/26 08:14:08;;;;;;;17.80;11.18;;;22.20;71.00;;;;;;5050609;28;20208;-70
2022/03/26 08:16:34;;;;;;;18.23;10.85;;;21.60;73.20;;;;;;5062666;28;20196;-70
2022/03/26 08:19:00;;;;;;;19.08;11.27;;;21.30;74.10;;;;;;5069865;28;20165;-69
2022/03/26 08:21:27;;;;;;;17.45;10.63;;;21.00;75.10;;;;;;5070532;28;20220;-70
2022/03/26 08:23:54;;;;;;;16.42;10.85;;;22.10;71.10;;;;;;5068118;28;20211;-70
2022/03/26 08:26:22;;;;;;;20.83;11.38;;;22.10;72.70;;;;;;5070065;28;20179;-70
2022/03/26 08:28:49;;;;;;;18.73;12.07;;;22.80;70.10;;;;;;5070086;28;20164;-70
2022/03/26 08:31:17;;;;;;;18.27;10.50;;;23.00;70.80;;;;;;5070203;28;20152;-70
2022/03/26 08:33:44;;;;;;;20.08;10.60;;;23.60;68.60;;;;;;5070240;28;20195;-69
2022/03/26 08:36:11;;;;;;;17.85;11.23;;;23.10;71.80;;;;;;5069981;28;20252;-70
2022/03/26 08:38:37;;;;;;;16.73;10.65;;;23.80;67.90;;;;;;5070267;28;20164;-70
2022/03/26 08:41:04;;;;;;;19.73;11.35;;;23.90;68.80;;;;;;5069997;28;20165;-70
2022/03/26 08:43:31;;;;;;;17.92;10.95;;;24.10;66.20;;;;;;5069999;28;20198;-70
2022/03/26 08:45:57;;;;;;;17.08;11.57;;;23.60;67.50;;;;;;5069936;28;20206;-70
2022/03/26 08:48:23;;;;;;;17.65;10.95;;;24.00;68.50;;;;;;5052010;28;20625;-71
2022/03/26 08:50:49;;;;;;;18.83;11.20;;;24.80;64.70;;;;;;5069847;28;20165;-71
2022/03/26 08:53:15;;;;;;;18.90;11.93;;;24.60;65.70;;;;;;5069447;28;20589;-72
2022/03/26 08:55:41;;;;;;;20.85;11.85;;;24.80;64.00;;;;;;5068386;28;20291;-71
2022/03/26 08:58:07;;;;;;;17.88;11.15;;;24.20;65.80;;;;;;5063773;28;20263;-71
2022/03/26 09:00:34;;;;;;;20.45;11.60;;;24.10;64.50;;;;;;5068683;28;20247;-71
2022/03/26 09:03:02;;;;;;;16.65;10.50;;;24.70;66.10;;;;;;5066337;28;20183;-71
2022/03/26 09:05:28;;;;;;;19.55;11.55;;;25.20;63.70;;;;;;5059082;28;20259;-71
2022/03/26 09:07:54;;;;;;;18.95;10.23;;;25.20;64.20;;;;;;5057562;28;20161;-71
2022/03/26 09:10:20;;;;;;;20.20;12.05;;;25.30;63.90;;;;;;5058184;28;20165;-71
2022/03/26 09:12:47;;;;;;;19.70;11.23;;;25.30;62.70;;;;;;5059169;28;20192;-71
2022/03/26 09:15:13;;;;;;;20.88;11.77;;;25.70;63.60;;;;;;5067790;28;20194;-71
2022/03/26 09:17:40;;;;;;;23.90;11.95;;;25.70;61.80;;;;;;5069412;28;20164;-71
2022/03/26 09:20:07;;;;;;;20.98;11.82;;;24.70;63.20;;;;;;5063267;28;20219;-70
2022/03/26 09:22:34;;;;;;;19.77;11.55;;;24.00;64.00;;;;;;5059276;28;20200;-69
2022/03/26 09:25:01;;;;;;;19.63;11.93;;;23.80;63.80;;;;;;5060221;28;20231;-70
2022/03/26 09:27:27;;;;;;;16.02;10.90;;;24.60;60.80;;;;;;5064008;28;20204;-70
2022/03/26 09:29:53;;;;;;;19.52;12.45;;;24.40;62.10;;;;;;5058383;28;20202;-69
2022/03/26 09:32:19;;;;;;;17.88;11.68;;;24.80;62.60;;;;;;5058797;28;20173;-69
2022/03/26 09:34:46;;;;;;;19.08;12.48;;;24.70;61.00;;;;;;5057983;28;20161;-70
2022/03/26 09:37:13;;;;;;;20.05;11.85;;;24.40;60.60;;;;;;5058873;28;20226;-71
2022/03/26 09:39:38;;;;;;;18.88;11.98;;;24.00;59.50;;;;;;5056957;28;20191;-73
2022/03/26 09:42:07;;;;;;;18.50;12.13;;;24.20;62.10;;;;;;5040042;28;20183;-73
2022/03/26 09:44:34;;;;;;;20.13;12.75;;;25.10;60.50;;;;;;5059121;28;20164;-73
2022/03/26 09:47:01;;;;;;;19.90;11.95;;;24.80;59.60;;;;;;5069035;28;20156;-71
2022/03/26 09:49:27;;;;;;;18.63;11.75;;;24.90;59.10;;;;;;5059283;28;20200;-71
2022/03/26 09:51:54;;;;;;;17.23;12.45;;;24.20;59.60;;;;;;5056994;28;20172;-70
2022/03/26 09:54:22;;;;;;;19.13;11.40;;;24.00;60.30;;;;;;5056028;28;20186;-70
2022/03/26 09:56:48;;;;;;;17.25;11.73;;;24.40;58.30;;;;;;5040295;28;20252;-71
2022/03/26 09:59:18;;;;;;;21.85;11.93;;;23.60;57.60;;;;;;5057973;28;20294;-71
2022/03/26 10:01:44;;;;;;;20.27;10.70;;;23.60;58.30;;;;;;5057490;28;20248;-70
2022/03/26 10:04:10;;;;;;;23.08;12.18;;;23.60;60.70;;;;;;5053486;28;20184;-70
2022/03/26 10:06:45;;;;;;;17.83;11.35;;;24.00;59.30;;;;;;5056636;28;20228;-72
2022/03/26 10:09:11;;;;;;;21.67;9.73;;;24.60;58.80;;;;;;5057115;28;20188;-68
2022/03/26 10:11:37;;;;;;;23.63;10.82;;;22.80;56.40;;;;;;5056209;28;20207;-68
2022/03/26 10:14:03;;;;;;;18.98;11.40;;;23.10;59.90;;;;;;5056653;28;20173;-69
2022/03/26 10:16:29;;;;;;;21.92;11.63;;;23.90;58.00;;;;;;5058240;28;20737;-70
2022/03/26 10:18:59;;;;;;;19.60;10.75;;;23.80;58.00;;;;;;5057582;28;20192;-72
2022/03/26 10:21:25;;;;;;;20.20;11.35;;;24.10;57.30;;;;;;5056146;28;20196;-72
2022/03/26 10:23:52;;;;;;;18.95;11.00;;;22.60;59.80;;;;;;5058123;28;20172;-69
2022/03/26 10:26:21;;;;;;;18.10;10.70;;;23.10;57.70;;;;;;5041646;28;20207;-70
2022/03/26 10:28:58;;;;;;;21.42;11.93;;;22.40;60.40;;;;;;5067808;28;20165;-69
2022/03/26 10:34:13;;;;;;;19.05;10.95;;;21.90;60.70;;;;;;5042843;28;20199;-69
2022/03/26 10:36:42;;;;;;;19.17;11.27;;;22.30;61.50;;;;;;5057267;28;20201;-70
2022/03/26 10:39:15;;;;;;;16.80;10.93;;;22.70;60.30;;;;;;5055961;28;20158;-69
2022/03/26 10:41:42;;;;;;;18.20;10.70;;;21.60;60.30;;;;;;5056950;28;20560;-70
2022/03/26 10:44:15;;;;;;;18.13;11.30;;;21.70;60.60;;;;;;5061757;28;20157;-70
2022/03/26 10:46:43;;;;;;;18.17;10.70;;;21.70;59.00;;;;;;5067267;28;20365;-70
2022/03/26 10:49:09;;;;;;;16.98;11.13;;;21.50;61.10;;;;;;5071728;28;20165;-70
2022/03/26 10:51:41;;;;;;;21.92;10.52;;;21.80;61.70;;;;;;5071883;28;20161;-71
2022/03/26 10:54:12;;;;;;;21.02;11.20;;;22.10;61.60;;;;;;5071932;28;20153;-72
2022/03/26 10:56:38;;;;;;;18.67;10.88;;;21.60;61.60;;;;;;5053832;28;20205;-71
2022/03/26 10:59:05;;;;;;;17.67;10.18;;;22.30;62.60;;;;;;5071521;28;20291;-71
2022/03/26 11:01:31;;;;;;;18.05;9.68;;;23.20;59.90;;;;;;5064755;28;20181;-71
2022/03/26 11:03:57;;;;;;;19.20;11.02;;;23.50;59.80;;;;;;5051689;28;20220;-71
2022/03/26 11:06:28;;;;;;;18.92;10.73;;;22.40;60.50;;;;;;5051600;28;20161;-71
2022/03/26 11:09:00;;;;;;;20.25;11.30;;;22.10;61.80;;;;;;5051081;28;20650;-72
2022/03/26 11:11:29;;;;;;;22.25;11.88;;;21.30;63.00;;;;;;5050675;28;20161;-72
2022/03/26 11:14:01;;;;;;;18.00;11.32;;;20.80;62.30;;;;;;5051760;28;20172;-72
2022/03/26 11:16:56;;;;;;;19.58;11.35;;;21.30;61.10;;;;;;5051949;28;20217;-73
2022/03/26 11:19:47;;;;;;;18.58;11.40;;;21.90;60.40;;;;;;5051539;28;20199;-72
2022/03/26 11:22:36;;;;;;;17.52;10.88;;;22.10;59.00;;;;;;5051667;28;20173;-73
2022/03/26 11:25:09;;;;;;;19.00;11.38;;;22.60;61.30;;;;;;5060784;28;20229;-72
2022/03/26 11:27:56;;;;;;;20.10;11.55;;;22.80;62.60;;;;;;5071661;28;20546;-71
2022/03/26 11:30:49;;;;;;;19.77;11.00;;;22.70;59.90;;;;;;5071405;28;20180;-71
2022/03/26 11:33:18;;;;;;;16.13;11.10;;;22.60;59.20;;;;;;5051525;28;20221;-70
2022/03/26 11:35:58;;;;;;;17.60;11.60;;;22.90;60.50;;;;;;5051380;28;20195;-71
2022/03/26 11:38:29;;;;;;;20.63;11.65;;;23.00;58.10;;;;;;5051185;28;20152;-71
2022/03/26 11:40:56;;;;;;;19.38;12.10;;;23.40;58.80;;;;;;5051308;28;20188;-71
2022/03/26 11:43:44;;;;;;;17.48;10.52;;;23.50;59.90;;;;;;5051259;28;20161;-71
2022/03/26 11:51:56;;;;;;;20.50;12.65;;;23.20;60.70;;;;;;5051382;28;20180;-71
2022/03/26 11:54:22;;;;;;;21.33;11.43;;;23.50;59.90;;;;;;5050712;28;20160;-71
2022/03/26 11:57:15;;;;;;;19.90;11.25;;;23.70;59.50;;;;;;5050964;28;20189;-70
2022/03/26 11:59:41;;;;;;;18.85;10.93;;;23.30;62.00;;;;;;5050701;28;20228;-70
2022/03/26 12:02:20;;;;;;;19.20;11.45;;;23.50;59.30;;;;;;5050930;28;20150;-71
2022/03/26 12:08:38;;;;;;;18.25;11.30;;;23.60;58.60;;;;;;5022377;28;20678;-71
2022/03/26 12:11:04;;;;;;;20.23;12.35;;;23.40;59.10;;;;;;4970448;29;20191;-70
2022/03/26 12:13:34;;;;;;;19.95;11.48;;;23.80;59.90;;;;;;4970340;29;20214;-71
2022/03/26 12:16:02;;;;;;;19.00;11.45;;;24.10;58.80;;;;;;4970261;29;20195;-71
2022/03/26 12:18:33;;;;;;;19.92;11.73;;;24.50;58.60;;;;;;4970350;29;20728;-70
2022/03/26 12:21:07;;;;;;;20.50;12.60;;;24.20;58.80;;;;;;4970330;29;20184;-71
2022/03/26 12:23:34;;;;;;;19.08;10.70;;;24.10;58.40;;;;;;4970325;29;20235;-70
2022/03/26 12:26:06;;;;;;;17.05;10.70;;;24.00;59.50;;;;;;4972891;28;20222;-71
2022/03/26 12:28:37;;;;;;;16.67;10.25;;;23.70;60.20;;;;;;4970225;29;20207;-71
2022/03/26 12:31:06;;;;;;;20.65;12.23;;;22.40;60.00;;;;;;4972994;28;20167;-71
2022/03/26 12:33:46;;;;;;;19.40;10.27;;;21.60;63.10;;;;;;4989445;28;20270;-71
2022/03/26 12:36:15;;;;;;;17.88;11.00;;;21.40;63.00;;;;;;4989309;28;20202;-70
2022/03/26 12:38:46;;;;;;;22.95;11.95;;;21.10;62.10;;;;;;4989185;28;20270;-71
2022/03/26 12:41:14;;;;;;;17.80;10.48;;;20.50;64.50;;;;;;4989290;28;20187;-72
2022/03/26 12:43:40;;;;;;;19.15;11.02;;;20.30;63.70;;;;;;4989204;28;20172;-71
2022/03/26 12:46:13;;;;;;;16.58;10.63;;;20.10;65.30;;;;;;5000311;28;20672;-71
2022/03/26 12:48:39;;;;;;;15.70;9.88;;;19.70;64.60;;;;;;5069967;28;20242;-71